sensor_id;sensor_type;location;lat;lon;timestamp;pressure;altitude;pressure_sealevel;temperature;humidity
6136;BME280;24008;42.664;23.372;2024-02-15T00:02:14;95079.31;;;3.16;66.92
6136;BME280;24008;42.664;23.372;2024-02-15T00:04:41;95110.00;;;3.38;66.49
6136;BME280;24008;42.664;23.372;2024-02-15T00:07:08;95117.69;;;3.37;66.34
6136;BME280;24008;42.664;23.372;2024-02-15T00:09:36;95116.97;;;3.35;66.52
6136;BME280;24008;42.664;23.372;2024-02-15T00:12:05;95122.75;;;3.37;67.01
6136;BME280;24008;42.664;23.372;2024-02-15T00:14:33;95119.41;;;3.36;66.26
6136;BME280;24008;42.664;23.372;2024-02-15T00:17:07;95120.31;;;3.35;67.04
6136;BME280;24008;42.664;23.372;2024-02-15T00:19:34;95118.50;;;3.37;65.94
6136;BME280;24008;42.664;23.372;2024-02-15T00:22:04;95119.22;;;3.39;66.79
6136;BME280;24008;42.664;23.372;2024-02-15T00:24:31;95129.31;;;3.39;66.18
6136;BME280;24008;42.664;23.372;2024-02-15T00:26:57;95083.09;;;3.09;66.16
6136;BME280;24008;42.664;23.372;2024-02-15T00:29:25;95108.38;;;3.23;65.93
6136;BME280;24008;42.664;23.372;2024-02-15T00:31:54;95135.19;;;3.25;65.92
6136;BME280;24008;42.664;23.372;2024-02-15T00:34:20;95130.22;;;3.38;66.39
6136;BME280;24008;42.664;23.372;2024-02-15T00:36:47;95059.59;;;2.93;65.77
6136;BME280;24008;42.664;23.372;2024-02-15T00:39:14;95136.28;;;3.36;66.66
6136;BME280;24008;42.664;23.372;2024-02-15T00:41:43;95134.47;;;3.38;66.28
6136;BME280;24008;42.664;23.372;2024-02-15T00:44:10;95124.38;;;3.38;66.42
6136;BME280;24008;42.664;23.372;2024-02-15T00:46:39;95132.56;;;3.41;65.75
6136;BME280;24008;42.664;23.372;2024-02-15T00:49:07;95135.28;;;3.38;66.52
6136;BME280;24008;42.664;23.372;2024-02-15T00:51:35;95153.88;;;3.37;65.77
6136;BME280;24008;42.664;23.372;2024-02-15T00:54:02;95057.72;;;2.96;66.33
6136;BME280;24008;42.664;23.372;2024-02-15T00:56:29;95126.25;;;3.34;66.65
6136;BME280;24008;42.664;23.372;2024-02-15T00:58:58;95128.69;;;3.36;66.72
6136;BME280;24008;42.664;23.372;2024-02-15T01:01:26;95123.72;;;3.34;66.12
6136;BME280;24008;42.664;23.372;2024-02-15T01:03:54;95129.50;;;3.36;66.10
6136;BME280;24008;42.664;23.372;2024-02-15T01:06:21;95135.47;;;3.35;66.67
6136;BME280;24008;42.664;23.372;2024-02-15T01:08:48;95091.03;;;3.17;66.23
6136;BME280;24008;42.664;23.372;2024-02-15T01:11:15;95109.44;;;3.19;66.56
6136;BME280;24008;42.664;23.372;2024-02-15T01:13:42;95130.56;;;3.32;65.89
6136;BME280;24008;42.664;23.372;2024-02-15T01:16:09;95136.44;;;3.33;66.38
6136;BME280;24008;42.664;23.372;2024-02-15T01:18:36;95127.88;;;3.35;65.87
6136;BME280;24008;42.664;23.372;2024-02-15T01:21:04;95122.91;;;3.34;65.73
6136;BME280;24008;42.664;23.372;2024-02-15T01:23:31;95130.56;;;3.32;65.75
6136;BME280;24008;42.664;23.372;2024-02-15T01:25:58;95115.44;;;3.32;65.62
6136;BME280;24008;42.664;23.372;2024-02-15T01:28:26;95117.06;;;3.33;66.54
6136;BME280;24008;42.664;23.372;2024-02-15T01:30:54;95110.25;;;3.19;66.44
6136;BME280;24008;42.664;23.372;2024-02-15T01:33:21;95003.25;;;2.48;66.02
6136;BME280;24008;42.664;23.372;2024-02-15T01:35:47;95132.38;;;3.30;65.68
6136;BME280;24008;42.664;23.372;2024-02-15T01:38:16;95124.88;;;3.29;66.36
6136;BME280;24008;42.664;23.372;2024-02-15T01:40:41;95124.25;;;3.25;65.63
6136;BME280;24008;42.664;23.372;2024-02-15T01:43:08;95130.91;;;3.26;66.12
6136;BME280;24008;42.664;23.372;2024-02-15T01:45:35;95052.91;;;2.77;66.10
6136;BME280;24008;42.664;23.372;2024-02-15T01:48:02;95121.00;;;3.23;66.33
6136;BME280;24008;42.664;23.372;2024-02-15T01:50:29;95124.44;;;3.22;65.95
6136;BME280;24008;42.664;23.372;2024-02-15T01:52:58;95120.44;;;3.18;66.66
6136;BME280;24008;42.664;23.372;2024-02-15T01:55:27;95039.44;;;2.63;66.81
6136;BME280;24008;42.664;23.372;2024-02-15T01:57:54;95125.41;;;3.19;66.94
6136;BME280;24008;42.664;23.372;2024-02-15T02:00:21;95051.69;;;2.69;66.35
6136;BME280;24008;42.664;23.372;2024-02-15T02:02:50;95123.88;;;3.17;67.12
6136;BME280;24008;42.664;23.372;2024-02-15T02:05:17;95053.41;;;2.68;66.76
6136;BME280;24008;42.664;23.372;2024-02-15T02:07:44;95080.78;;;2.90;66.66
6136;BME280;24008;42.664;23.372;2024-02-15T02:10:11;95095.59;;;2.96;66.32
6136;BME280;24008;42.664;23.372;2024-02-15T02:12:41;95131.53;;;3.15;66.40
6136;BME280;24008;42.664;23.372;2024-02-15T02:15:08;95131.63;;;3.14;66.75
6136;BME280;24008;42.664;23.372;2024-02-15T02:17:36;95131.63;;;3.14;66.15
6136;BME280;24008;42.664;23.372;2024-02-15T02:20:04;95077.50;;;2.74;66.54
6136;BME280;24008;42.664;23.372;2024-02-15T02:22:34;95109.19;;;2.94;66.50
6136;BME280;24008;42.664;23.372;2024-02-15T02:25:05;95139.22;;;3.14;66.25
6136;BME280;24008;42.664;23.372;2024-02-15T02:27:33;95140.09;;;3.13;66.24
6136;BME280;24008;42.664;23.372;2024-02-15T02:30:03;95008.41;;;2.31;67.27
6136;BME280;24008;42.664;23.372;2024-02-15T02:32:32;95116.38;;;2.85;66.75
6136;BME280;24008;42.664;23.372;2024-02-15T02:35:00;95147.13;;;3.08;67.29
6136;BME280;24008;42.664;23.372;2024-02-15T02:37:27;95128.13;;;2.86;66.68
6136;BME280;24008;42.664;23.372;2024-02-15T02:39:53;95124.63;;;2.89;66.70
6136;BME280;24008;42.664;23.372;2024-02-15T02:42:22;95146.22;;;3.09;66.59
6136;BME280;24008;42.664;23.372;2024-02-15T02:44:49;95123.59;;;2.92;66.70
6136;BME280;24008;42.664;23.372;2024-02-15T02:47:15;95119.47;;;2.90;67.02
6136;BME280;24008;42.664;23.372;2024-02-15T02:49:42;95061.72;;;2.54;67.03
6136;BME280;24008;42.664;23.372;2024-02-15T02:52:09;95025.91;;;2.34;66.87
6136;BME280;24008;42.664;23.372;2024-02-15T02:54:36;95150.69;;;3.04;66.87
6136;BME280;24008;42.664;23.372;2024-02-15T02:57:03;95145.91;;;2.99;66.65
6136;BME280;24008;42.664;23.372;2024-02-15T02:59:34;95159.16;;;3.03;66.51
6136;BME280;24008;42.664;23.372;2024-02-15T03:02:01;95112.66;;;2.77;67.57
6136;BME280;24008;42.664;23.372;2024-02-15T03:04:29;95151.06;;;2.98;66.78
6136;BME280;24008;42.664;23.372;2024-02-15T03:06:55;95138.75;;;2.92;67.08
6136;BME280;24008;42.664;23.372;2024-02-15T03:09:23;95120.88;;;2.80;66.97
6136;BME280;24008;42.664;23.372;2024-02-15T03:11:52;95172.44;;;3.06;66.82
6136;BME280;24008;42.664;23.372;2024-02-15T03:14:18;95120.78;;;2.82;67.54
6136;BME280;24008;42.664;23.372;2024-02-15T03:16:47;95161.81;;;3.01;67.47
6136;BME280;24008;42.664;23.372;2024-02-15T03:19:14;95165.38;;;2.97;66.87
6136;BME280;24008;42.664;23.372;2024-02-15T03:21:41;95102.91;;;2.55;67.57
6136;BME280;24008;42.664;23.372;2024-02-15T03:24:11;95122.28;;;2.70;67.54
6136;BME280;24008;42.664;23.372;2024-02-15T03:26:38;95163.91;;;2.93;68.39
6136;BME280;24008;42.664;23.372;2024-02-15T03:29:05;95168.16;;;2.93;68.22
6136;BME280;24008;42.664;23.372;2024-02-15T03:31:33;95180.03;;;2.90;67.17
6136;BME280;24008;42.664;23.372;2024-02-15T03:34:03;95141.19;;;2.63;67.82
6136;BME280;24008;42.664;23.372;2024-02-15T03:36:30;95127.16;;;2.58;68.08
6136;BME280;24008;42.664;23.372;2024-02-15T03:38:56;95047.41;;;2.09;67.73
6136;BME280;24008;42.664;23.372;2024-02-15T03:41:26;95164.34;;;2.85;67.87
6136;BME280;24008;42.664;23.372;2024-02-15T03:43:53;95167.38;;;2.76;68.25
6136;BME280;24008;42.664;23.372;2024-02-15T03:46:20;95058.22;;;2.11;67.99
6136;BME280;24008;42.664;23.372;2024-02-15T03:48:47;95123.09;;;2.55;67.96
6136;BME280;24008;42.664;23.372;2024-02-15T03:51:17;95122.72;;;2.47;68.40
6136;BME280;24008;42.664;23.372;2024-02-15T03:53:45;95155.16;;;2.69;68.81
6136;BME280;24008;42.664;23.372;2024-02-15T03:56:13;95113.84;;;2.40;68.38
6136;BME280;24008;42.664;23.372;2024-02-15T03:58:39;95165.41;;;2.66;68.90
6136;BME280;24008;42.664;23.372;2024-02-15T04:01:06;95157.22;;;2.62;68.72
6136;BME280;24008;42.664;23.372;2024-02-15T04:03:35;95152.25;;;2.61;68.95
6136;BME280;24008;42.664;23.372;2024-02-15T04:06:02;95161.59;;;2.59;69.06
6136;BME280;24008;42.664;23.372;2024-02-15T04:08:31;95169.34;;;2.56;69.06
6136;BME280;24008;42.664;23.372;2024-02-15T04:10:57;95159.34;;;2.38;69.13
6136;BME280;24008;42.664;23.372;2024-02-15T04:13:24;94993.50;;;1.49;69.31
6136;BME280;24008;42.664;23.372;2024-02-15T04:15:51;95150.00;;;2.40;69.23
6136;BME280;24008;42.664;23.372;2024-02-15T04:18:18;95166.66;;;2.59;69.59
6136;BME280;24008;42.664;23.372;2024-02-15T04:20:45;95122.78;;;2.30;69.26
6136;BME280;24008;42.664;23.372;2024-02-15T04:23:12;95135.97;;;2.35;69.18
6136;BME280;24008;42.664;23.372;2024-02-15T04:25:40;95130.94;;;2.35;68.77
6136;BME280;24008;42.664;23.372;2024-02-15T04:28:09;95139.25;;;2.37;69.10
6136;BME280;24008;42.664;23.372;2024-02-15T04:30:36;95038.97;;;1.79;68.90
6136;BME280;24008;42.664;23.372;2024-02-15T04:33:04;95133.59;;;2.32;69.50
6136;BME280;24008;42.664;23.372;2024-02-15T04:35:31;95171.78;;;2.57;69.73
6136;BME280;24008;42.664;23.372;2024-02-15T04:37:57;95175.19;;;2.56;69.32
6136;BME280;24008;42.664;23.372;2024-02-15T04:40:24;95175.03;;;2.59;69.86
6136;BME280;24008;42.664;23.372;2024-02-15T04:42:53;95186.03;;;2.58;69.72
6136;BME280;24008;42.664;23.372;2024-02-15T04:45:19;95191.97;;;2.57;69.04
6136;BME280;24008;42.664;23.372;2024-02-15T04:47:48;95188.53;;;2.58;69.16
6136;BME280;24008;42.664;23.372;2024-02-15T04:50:18;95027.31;;;1.61;69.31
6136;BME280;24008;42.664;23.372;2024-02-15T04:52:54;95107.34;;;2.04;69.10
6136;BME280;24008;42.664;23.372;2024-02-15T04:55:22;95200.50;;;2.54;69.40
6136;BME280;24008;42.664;23.372;2024-02-15T04:57:53;95203.03;;;2.54;69.24
6136;BME280;24008;42.664;23.372;2024-02-15T05:00:22;95155.84;;;2.25;69.34
6136;BME280;24008;42.664;23.372;2024-02-15T05:02:51;95202.53;;;2.48;69.48
6136;BME280;24008;42.664;23.372;2024-02-15T05:05:20;95202.53;;;2.48;69.68
6136;BME280;24008;42.664;23.372;2024-02-15T05:07:47;95167.47;;;2.28;70.15
6136;BME280;24008;42.664;23.372;2024-02-15T05:10:16;95211.00;;;2.47;69.24
6136;BME280;24008;42.664;23.372;2024-02-15T05:12:47;95215.16;;;2.48;69.46
6136;BME280;24008;42.664;23.372;2024-02-15T05:15:16;95172.81;;;2.22;70.30
6136;BME280;24008;42.664;23.372;2024-02-15T05:17:44;95222.50;;;2.52;69.88
6136;BME280;24008;42.664;23.372;2024-02-15T05:20:11;95218.66;;;2.45;69.22
6136;BME280;24008;42.664;23.372;2024-02-15T05:22:39;95222.41;;;2.38;69.87
6136;BME280;24008;42.664;23.372;2024-02-15T05:25:09;95224.84;;;2.40;69.84
6136;BME280;24008;42.664;23.372;2024-02-15T05:27:38;95217.50;;;2.35;70.04
6136;BME280;24008;42.664;23.372;2024-02-15T05:30:05;95187.69;;;2.10;70.05
6136;BME280;24008;42.664;23.372;2024-02-15T05:32:34;95227.81;;;2.31;70.50
6136;BME280;24008;42.664;23.372;2024-02-15T05:35:08;95232.16;;;2.29;70.51
6136;BME280;24008;42.664;23.372;2024-02-15T05:37:34;94954.41;;;0.60;70.33
6136;BME280;24008;42.664;23.372;2024-02-15T05:40:01;95155.69;;;1.79;70.27
6136;BME280;24008;42.664;23.372;2024-02-15T05:42:28;95238.81;;;2.30;70.84
6136;BME280;24008;42.664;23.372;2024-02-15T05:44:54;95204.69;;;2.07;70.43
6136;BME280;24008;42.664;23.372;2024-02-15T05:47:21;95236.94;;;2.33;70.27
6136;BME280;24008;42.664;23.372;2024-02-15T05:49:53;95236.06;;;2.34;70.63
6136;BME280;24008;42.664;23.372;2024-02-15T05:52:20;95200.31;;;2.10;70.19
6136;BME280;24008;42.664;23.372;2024-02-15T05:54:47;95196.97;;;2.10;70.86
6136;BME280;24008;42.664;23.372;2024-02-15T05:57:14;95246.03;;;2.53;71.73
6136;BME280;24008;42.664;23.372;2024-02-15T05:59:42;95245.69;;;2.59;70.77
6136;BME280;24008;42.664;23.372;2024-02-15T06:02:09;95175.34;;;2.22;70.84
6136;BME280;24008;42.664;23.372;2024-02-15T06:04:34;95253.03;;;2.64;69.46
6136;BME280;24008;42.664;23.372;2024-02-15T06:07:02;95254.00;;;2.61;69.32
6136;BME280;24008;42.664;23.372;2024-02-15T06:09:29;95260.53;;;2.65;69.68
6136;BME280;24008;42.664;23.372;2024-02-15T06:11:58;95263.94;;;2.64;69.15
6136;BME280;24008;42.664;23.372;2024-02-15T06:14:25;95272.41;;;2.63;69.05
6136;BME280;24008;42.664;23.372;2024-02-15T06:16:52;95243.22;;;2.42;69.04
6136;BME280;24008;42.664;23.372;2024-02-15T06:19:20;95274.66;;;2.68;69.64
6136;BME280;24008;42.664;23.372;2024-02-15T06:21:47;95243.72;;;2.48;69.75
6136;BME280;24008;42.664;23.372;2024-02-15T06:24:15;95280.16;;;2.76;68.94
6136;BME280;24008;42.664;23.372;2024-02-15T06:26:42;95285.28;;;2.74;68.93
6136;BME280;24008;42.664;23.372;2024-02-15T06:29:10;95295.22;;;2.77;68.96
6136;BME280;24008;42.664;23.372;2024-02-15T06:31:54;95288.19;;;2.82;69.32
6136;BME280;24008;42.664;23.372;2024-02-15T06:34:44;95168.03;;;2.17;68.69
6136;BME280;24008;42.664;23.372;2024-02-15T06:37:38;95248.38;;;2.56;69.01
6136;BME280;24008;42.664;23.372;2024-02-15T06:40:24;95288.19;;;2.82;68.56
6136;BME280;24008;42.664;23.372;2024-02-15T06:42:51;95292.50;;;2.80;68.49
6136;BME280;24008;42.664;23.372;2024-02-15T06:45:18;95016.88;;;1.02;68.59
6136;BME280;24008;42.664;23.372;2024-02-15T06:47:45;95269.63;;;2.68;68.69
6136;BME280;24008;42.664;23.372;2024-02-15T06:50:12;95263.59;;;2.70;68.75
6136;BME280;24008;42.664;23.372;2024-02-15T06:52:38;95316.06;;;2.97;68.87
6136;BME280;24008;42.664;23.372;2024-02-15T06:55:07;95220.28;;;2.78;68.38
6136;BME280;24008;42.664;23.372;2024-02-15T06:57:35;95259.88;;;3.09;67.47
6136;BME280;24008;42.664;23.372;2024-02-15T07:00:02;95282.97;;;3.48;67.17
6136;BME280;24008;42.664;23.372;2024-02-15T07:02:29;95280.47;;;3.62;67.14
6136;BME280;24008;42.664;23.372;2024-02-15T07:04:58;95292.31;;;3.76;66.81
6136;BME280;24008;42.664;23.372;2024-02-15T07:07:24;95276.06;;;4.10;65.19
6136;BME280;24008;42.664;23.372;2024-02-15T07:09:51;95315.06;;;5.20;64.33
6136;BME280;24008;42.664;23.372;2024-02-15T07:12:18;95278.44;;;6.42;60.31
6136;BME280;24008;42.664;23.372;2024-02-15T07:14:47;95235.94;;;7.30;55.48
6136;BME280;24008;42.664;23.372;2024-02-15T07:17:14;95281.09;;;8.44;53.02
6136;BME280;24008;42.664;23.372;2024-02-15T07:19:43;95279.53;;;8.30;50.20
6136;BME280;24008;42.664;23.372;2024-02-15T07:22:09;95262.41;;;7.51;50.39
6136;BME280;24008;42.664;23.372;2024-02-15T07:24:36;95245.00;;;6.74;52.25
6136;BME280;24008;42.664;23.372;2024-02-15T07:27:04;95171.44;;;5.85;53.20
6136;BME280;24008;42.664;23.372;2024-02-15T07:29:30;95205.88;;;5.50;54.72
6136;BME280;24008;42.664;23.372;2024-02-15T07:32:00;95247.97;;;5.52;55.49
6136;BME280;24008;42.664;23.372;2024-02-15T07:34:27;95283.28;;;5.55;56.51
6136;BME280;24008;42.664;23.372;2024-02-15T07:36:54;95290.03;;;5.42;57.76
6136;BME280;24008;42.664;23.372;2024-02-15T07:39:21;95278.59;;;5.22;58.25
6136;BME280;24008;42.664;23.372;2024-02-15T07:41:50;95279.41;;;5.23;59.33
6136;BME280;24008;42.664;23.372;2024-02-15T07:44:17;95282.06;;;5.34;59.42
6136;BME280;24008;42.664;23.372;2024-02-15T07:46:45;95192.03;;;6.19;57.14
6136;BME280;24008;42.664;23.372;2024-02-15T07:49:13;95273.78;;;8.62;52.84
6136;BME280;24008;42.664;23.372;2024-02-15T07:51:41;95223.88;;;9.89;47.12
6136;BME280;24008;42.664;23.372;2024-02-15T07:54:08;95282.94;;;10.98;45.86
6136;BME280;24008;42.664;23.372;2024-02-15T07:56:36;95275.94;;;11.69;43.39
6136;BME280;24008;42.664;23.372;2024-02-15T07:59:03;95273.09;;;12.30;42.28
6136;BME280;24008;42.664;23.372;2024-02-15T08:01:30;95224.25;;;12.41;39.59
6136;BME280;24008;42.664;23.372;2024-02-15T08:03:57;95231.28;;;12.93;40.09
6136;BME280;24008;42.664;23.372;2024-02-15T08:06:25;95266.53;;;13.74;38.72
6136;BME280;24008;42.664;23.372;2024-02-15T08:08:53;95219.69;;;13.62;37.18
6136;BME280;24008;42.664;23.372;2024-02-15T08:11:20;95213.75;;;14.05;36.45
6136;BME280;24008;42.664;23.372;2024-02-15T08:13:47;95233.41;;;14.14;36.35
6136;BME280;24008;42.664;23.372;2024-02-15T08:16:15;95255.88;;;14.48;36.27
6136;BME280;24008;42.664;23.372;2024-02-15T08:18:43;95218.81;;;14.15;36.45
6136;BME280;24008;42.664;23.372;2024-02-15T08:21:12;95199.97;;;13.62;36.68
6136;BME280;24008;42.664;23.372;2024-02-15T08:23:41;95260.16;;;14.21;36.01
6136;BME280;24008;42.664;23.372;2024-02-15T08:26:07;95257.00;;;14.53;35.97
6136;BME280;24008;42.664;23.372;2024-02-15T08:28:36;95198.72;;;13.92;35.53
6136;BME280;24008;42.664;23.372;2024-02-15T08:31:03;95221.44;;;13.79;35.38
6136;BME280;24008;42.664;23.372;2024-02-15T08:33:30;95264.88;;;13.90;36.70
6136;BME280;24008;42.664;23.372;2024-02-15T08:35:56;95262.25;;;13.82;36.02
6136;BME280;24008;42.664;23.372;2024-02-15T08:38:23;95270.78;;;13.83;35.82
6136;BME280;24008;42.664;23.372;2024-02-15T08:40:51;95272.88;;;14.05;36.21
6136;BME280;24008;42.664;23.372;2024-02-15T08:43:18;95229.78;;;13.99;36.52
6136;BME280;24008;42.664;23.372;2024-02-15T08:45:45;95261.16;;;14.72;35.54
6136;BME280;24008;42.664;23.372;2024-02-15T08:48:11;95141.25;;;14.53;34.70
6136;BME280;24008;42.664;23.372;2024-02-15T08:50:39;95258.50;;;15.32;34.28
6136;BME280;24008;42.664;23.372;2024-02-15T08:53:07;95058.03;;;13.86;34.54
6136;BME280;24008;42.664;23.372;2024-02-15T08:55:34;95107.19;;;14.25;35.21
6136;BME280;24008;42.664;23.372;2024-02-15T08:58:02;95151.00;;;14.75;34.81
6136;BME280;24008;42.664;23.372;2024-02-15T09:00:29;95182.81;;;15.08;34.18
6136;BME280;24008;42.664;23.372;2024-02-15T09:02:56;95173.16;;;14.60;34.60
6136;BME280;24008;42.664;23.372;2024-02-15T09:05:24;95245.22;;;15.10;34.94
6136;BME280;24008;42.664;23.372;2024-02-15T09:07:50;94781.09;;;12.46;33.87
6136;BME280;24008;42.664;23.372;2024-02-15T09:10:18;95293.28;;;15.36;33.70
6136;BME280;24008;42.664;23.372;2024-02-15T09:12:48;95248.44;;;15.63;33.50
6136;BME280;24008;42.664;23.372;2024-02-15T09:15:16;95034.53;;;14.57;33.03
6136;BME280;24008;42.664;23.372;2024-02-15T09:17:44;94722.50;;;12.51;33.55
6136;BME280;24008;42.664;23.372;2024-02-15T09:20:12;94421.50;;;10.24;34.04
6136;BME280;24008;42.664;23.372;2024-02-15T09:22:41;95181.69;;;15.27;33.36
6136;BME280;24008;42.664;23.372;2024-02-15T09:25:09;95051.63;;;13.64;34.25
6136;BME280;24008;42.664;23.372;2024-02-15T09:27:36;95036.72;;;13.42;34.28
6136;BME280;24008;42.664;23.372;2024-02-15T09:30:13;95064.00;;;13.43;35.27
6136;BME280;24008;42.664;23.372;2024-02-15T09:32:42;94922.53;;;13.03;34.72
6136;BME280;24008;42.664;23.372;2024-02-15T09:35:10;95096.72;;;14.53;34.64
6136;BME280;24008;42.664;23.372;2024-02-15T09:37:38;95128.06;;;14.48;33.47
6136;BME280;24008;42.664;23.372;2024-02-15T09:40:08;95229.41;;;14.97;34.45
6136;BME280;24008;42.664;23.372;2024-02-15T09:42:36;95104.59;;;14.51;33.59
6136;BME280;24008;42.664;23.372;2024-02-15T09:45:05;95156.19;;;14.92;33.67
6136;BME280;24008;42.664;23.372;2024-02-15T09:47:34;95234.38;;;15.49;33.98
6136;BME280;24008;42.664;23.372;2024-02-15T09:50:05;95166.13;;;15.53;33.51
6136;BME280;24008;42.664;23.372;2024-02-15T09:52:33;95063.88;;;15.05;32.60
6136;BME280;24008;42.664;23.372;2024-02-15T09:55:02;95050.00;;;14.73;33.91
6136;BME280;24008;42.664;23.372;2024-02-15T09:57:30;95187.06;;;15.82;32.63
6136;BME280;24008;42.664;23.372;2024-02-15T09:59:58;95029.94;;;14.93;32.20
6136;BME280;24008;42.664;23.372;2024-02-15T10:02:26;95220.28;;;16.02;31.99
6136;BME280;24008;42.664;23.372;2024-02-15T10:04:53;95217.75;;;15.19;32.53
6136;BME280;24008;42.664;23.372;2024-02-15T10:07:24;95067.50;;;13.60;34.42
6136;BME280;24008;42.664;23.372;2024-02-15T10:09:52;95043.47;;;14.03;33.67
6136;BME280;24008;42.664;23.372;2024-02-15T10:12:19;95168.94;;;15.09;33.36
6136;BME280;24008;42.664;23.372;2024-02-15T10:14:50;95212.53;;;15.61;33.07
6136;BME280;24008;42.664;23.372;2024-02-15T10:17:18;95100.41;;;15.17;32.16
6136;BME280;24008;42.664;23.372;2024-02-15T10:20:02;95113.63;;;15.54;32.44
6136;BME280;24008;42.664;23.372;2024-02-15T10:22:30;95109.41;;;15.12;32.80
6136;BME280;24008;42.664;23.372;2024-02-15T10:25:10;95023.66;;;14.37;32.96
6136;BME280;24008;42.664;23.372;2024-02-15T10:27:38;95176.47;;;14.95;34.04
6136;BME280;24008;42.664;23.372;2024-02-15T10:30:14;95188.69;;;14.93;34.07
6136;BME280;24008;42.664;23.372;2024-02-15T10:32:41;95170.09;;;15.23;33.47
6136;BME280;24008;42.664;23.372;2024-02-15T10:35:09;94564.88;;;11.79;33.32
6136;BME280;24008;42.664;23.372;2024-02-15T10:37:41;95173.03;;;15.44;33.48
6136;BME280;24008;42.664;23.372;2024-02-15T10:40:09;95091.34;;;14.88;33.56
6136;BME280;24008;42.664;23.372;2024-02-15T10:42:40;95060.81;;;14.35;33.75
6136;BME280;24008;42.664;23.372;2024-02-15T10:45:08;95166.78;;;13.95;35.27
6136;BME280;24008;42.664;23.372;2024-02-15T10:47:37;95036.78;;;12.44;36.99
6136;BME280;24008;42.664;23.372;2024-02-15T10:50:06;95128.63;;;11.94;38.49
6136;BME280;24008;42.664;23.372;2024-02-15T10:52:37;94704.97;;;8.70;39.66
6136;BME280;24008;42.664;23.372;2024-02-15T10:55:10;95190.38;;;11.42;40.42
6136;BME280;24008;42.664;23.372;2024-02-15T10:57:44;95092.84;;;10.88;42.00
6136;BME280;24008;42.664;23.372;2024-02-15T11:00:14;95081.78;;;10.58;42.07
6136;BME280;24008;42.664;23.372;2024-02-15T11:02:54;95167.31;;;10.54;41.71
6136;BME280;24008;42.664;23.372;2024-02-15T11:05:29;95204.91;;;10.33;43.17
6136;BME280;24008;42.664;23.372;2024-02-15T11:08:02;95147.19;;;10.30;42.98
6136;BME280;24008;42.664;23.372;2024-02-15T11:10:31;94775.53;;;7.86;43.36
6136;BME280;24008;42.664;23.372;2024-02-15T11:12:59;95138.56;;;10.22;43.32
6136;BME280;24008;42.664;23.372;2024-02-15T11:15:41;95102.84;;;9.80;42.52
6136;BME280;24008;42.664;23.372;2024-02-15T11:18:11;95068.63;;;9.83;43.83
6136;BME280;24008;42.664;23.372;2024-02-15T11:20:50;94743.47;;;7.94;43.86
6136;BME280;24008;42.664;23.372;2024-02-15T11:23:25;95123.41;;;10.30;43.76
6136;BME280;24008;42.664;23.372;2024-02-15T11:25:57;95050.38;;;9.87;43.42
6136;BME280;24008;42.664;23.372;2024-02-15T11:28:43;94955.94;;;9.17;43.11
6136;BME280;24008;42.664;23.372;2024-02-15T11:31:55;95140.06;;;10.03;44.02
6136;BME280;24008;42.664;23.372;2024-02-15T11:34:46;95139.03;;;10.16;44.32
6136;BME280;24008;42.664;23.372;2024-02-15T11:37:48;95136.66;;;9.93;43.60
6136;BME280;24008;42.664;23.372;2024-02-15T11:40:17;94666.69;;;6.63;44.74
6136;BME280;24008;42.664;23.372;2024-02-15T11:42:46;95140.47;;;9.36;44.50
6136;BME280;24008;42.664;23.372;2024-02-15T11:45:13;94743.53;;;6.88;45.50
6136;BME280;24008;42.664;23.372;2024-02-15T11:47:47;95051.22;;;9.16;45.68
6136;BME280;24008;42.664;23.372;2024-02-15T11:50:16;95079.13;;;9.59;45.50
6136;BME280;24008;42.664;23.372;2024-02-15T11:52:44;95130.53;;;10.05;45.12
6136;BME280;24008;42.664;23.372;2024-02-15T11:55:12;94738.88;;;7.68;44.84
6136;BME280;24008;42.664;23.372;2024-02-15T11:57:39;94627.03;;;6.83;44.24
6136;BME280;24008;42.664;23.372;2024-02-15T12:00:21;94936.72;;;8.92;44.73
6136;BME280;24008;42.664;23.372;2024-02-15T12:03:06;94776.75;;;7.82;44.61
6136;BME280;24008;42.664;23.372;2024-02-15T12:05:50;94948.28;;;8.54;45.59
6136;BME280;24008;42.664;23.372;2024-02-15T12:08:44;94992.06;;;9.01;44.89
6136;BME280;24008;42.664;23.372;2024-02-15T12:11:28;94965.00;;;8.68;45.21
6136;BME280;24008;42.664;23.372;2024-02-15T12:14:12;94981.72;;;9.23;45.17
6136;BME280;24008;42.664;23.372;2024-02-15T12:17:02;94716.59;;;7.60;44.28
6136;BME280;24008;42.664;23.372;2024-02-15T12:19:48;94896.03;;;8.81;45.17
6136;BME280;24008;42.664;23.372;2024-02-15T12:22:17;95106.63;;;10.06;45.76
6136;BME280;24008;42.664;23.372;2024-02-15T12:24:57;95130.28;;;10.08;45.09
6136;BME280;24008;42.664;23.372;2024-02-15T12:27:24;95101.31;;;10.19;46.21
6136;BME280;24008;42.664;23.372;2024-02-15T12:29:56;94648.03;;;7.38;44.97
6136;BME280;24008;42.664;23.372;2024-02-15T12:32:26;95101.81;;;10.13;45.25
6136;BME280;24008;42.664;23.372;2024-02-15T12:35:01;94914.09;;;8.98;45.39
6136;BME280;24008;42.664;23.372;2024-02-15T12:37:36;95095.63;;;10.16;45.50
6136;BME280;24008;42.664;23.372;2024-02-15T12:40:10;95103.75;;;10.21;44.92
6136;BME280;24008;42.664;23.372;2024-02-15T12:42:41;95102.06;;;10.10;44.74
6136;BME280;24008;42.664;23.372;2024-02-15T12:45:15;94940.00;;;8.83;45.61
6136;BME280;24008;42.664;23.372;2024-02-15T12:47:44;95081.03;;;9.97;45.47
6136;BME280;24008;42.664;23.372;2024-02-15T12:50:15;94978.16;;;9.35;46.40
6136;BME280;24008;42.664;23.372;2024-02-15T12:52:42;95088.91;;;9.84;46.08
6136;BME280;24008;42.664;23.372;2024-02-15T12:55:14;95055.28;;;9.07;46.69
6136;BME280;24008;42.664;23.372;2024-02-15T12:57:42;94791.16;;;7.92;46.26
6136;BME280;24008;42.664;23.372;2024-02-15T13:00:12;94900.22;;;8.71;46.46
6136;BME280;24008;42.664;23.372;2024-02-15T13:02:45;95081.81;;;9.88;46.07
6136;BME280;24008;42.664;23.372;2024-02-15T13:05:12;94762.41;;;7.81;46.39
6136;BME280;24008;42.664;23.372;2024-02-15T13:07:40;94647.03;;;7.29;46.09
6136;BME280;24008;42.664;23.372;2024-02-15T13:10:07;94984.59;;;9.70;45.87
6136;BME280;24008;42.664;23.372;2024-02-15T13:12:35;94659.38;;;7.75;45.50
6136;BME280;24008;42.664;23.372;2024-02-15T13:15:03;95064.88;;;10.27;45.35
6136;BME280;24008;42.664;23.372;2024-02-15T13:17:31;95098.13;;;10.06;45.32
6136;BME280;24008;42.664;23.372;2024-02-15T13:20:00;95053.38;;;10.02;45.11